Time;durP1;ratioP1;P1;durP2;ratioP2;P2;SDS_P1;SDS_P2;PMS_P1;PMS_P2;Temp;Humidity;BMP_temperature;BMP_pressure;BME280_temperature;BME280_humidity;BME280_pressure;Samples;Min_cycle;Max_cycle;Signal;HPM_P1;HPM_P2
2022/01/20 00:00:00;;;;;;;;;;;;;;;3.87;100.00;102111.72;4993803;28;20034;-79
2022/01/20 00:02:36;;;;;;;22.67;3.38;;;;;;;3.85;100.00;102103.94;5029287;28;20274;-79
2022/01/20 00:28:39;;;;;;;20.40;2.83;;;;;;;3.98;100.00;102120.84;5023675;22;20055;-78
2022/01/20 00:31:27;;;;;;;25.55;2.47;;;;;;;3.89;100.00;102102.91;5039183;23;20066;-80
2022/01/20 00:34:14;;;;;;;23.75;3.00;;;;;;;3.75;100.00;102084.31;5014731;23;20070;-79
2022/01/20 00:39:34;;;;;;;20.00;2.67;;;;;;;3.82;100.00;102101.44;5013552;23;20499;-79
2022/01/20 00:42:22;;;;;;;20.15;2.58;;;;;;;3.87;100.00;102146.53;5005583;23;20180;-79
2022/01/20 00:45:02;;;;;;;26.23;3.40;;;;;;;3.78;100.00;102130.38;5072369;23;20049;-78
2022/01/20 00:47:28;;;;;;;27.37;3.00;;;;;;;3.82;100.00;102121.50;4990035;28;20105;-80
2022/01/20 00:49:53;;;;;;;19.90;2.30;;;;;;;3.68;100.00;102133.31;4991033;23;20105;-78
2022/01/20 00:52:26;;;;;;;25.25;3.05;;;;;;;3.72;100.00;102141.88;4986291;28;20074;-79
2022/01/20 00:54:55;;;;;;;22.20;3.00;;;;;;;3.50;100.00;102127.00;4987585;28;20136;-79
2022/01/20 00:57:28;;;;;;;28.27;3.22;;;;;;;3.65;100.00;102148.25;5010799;23;20151;-80
2022/01/20 00:59:57;;;;;;;30.73;3.28;;;;;;;3.46;100.00;102108.88;5064322;23;20061;-80
2022/01/20 01:02:26;;;;;;;18.10;2.25;;;;;;;3.62;100.00;102115.25;4987067;28;20124;-79
2022/01/20 01:04:58;;;;;;;30.85;3.28;;;;;;;3.85;100.00;102152.75;4988193;28;20042;-79
2022/01/20 01:22:37;;;;;;;23.08;3.30;;;;;;;3.46;100.00;102128.00;4916865;29;20051;-79
2022/01/20 01:25:09;;;;;;;23.77;2.70;;;;;;;3.34;100.00;102099.75;4932019;29;20048;-80
2022/01/20 01:27:43;;;;;;;16.30;2.25;;;;;;;3.65;100.00;102154.31;5002115;23;20479;-80
2022/01/20 01:33:08;;;;;;;14.05;1.90;;;;;;;3.09;100.00;102086.72;5035404;28;20030;-79
2022/01/20 01:35:43;;;;;;;18.30;2.65;;;;;;;3.48;100.00;102128.81;5035359;28;20033;-80
2022/01/20 01:40:41;;;;;;;18.05;2.40;;;;;;;3.25;100.00;102127.03;5025684;28;20053;-80
2022/01/20 01:43:17;;;;;;;17.40;2.70;;;;;;;3.13;100.00;102083.06;5005175;28;20364;-79
2022/01/20 01:45:43;;;;;;;15.30;2.10;;;;;;;3.28;100.00;102113.84;5024666;23;20412;-80
2022/01/20 01:48:09;;;;;;;18.92;2.53;;;;;;;3.47;100.00;102155.81;4987927;28;20146;-79
2022/01/20 01:50:35;;;;;;;22.95;2.70;;;;;;;3.32;100.00;102132.88;4987751;28;20357;-80
2022/01/20 01:53:05;;;;;;;29.20;2.90;;;;;;;3.53;100.00;102173.03;4973656;28;20037;-78
2022/01/20 01:55:33;;;;;;;21.48;2.83;;;;;;;3.37;100.00;102148.38;4993330;28;20040;-79
2022/01/20 01:58:02;;;;;;;22.77;2.85;;;;;;;3.05;100.00;102132.91;5010800;28;20098;-79
2022/01/20 02:00:30;;;;;;;14.32;2.25;;;;;;;2.85;100.00;102128.38;4975078;28;20041;-79
2022/01/20 02:02:56;;;;;;;14.30;2.08;;;;;;;2.78;100.00;102118.19;4979126;28;20015;-80
2022/01/20 02:05:23;;;;;;;13.75;1.60;;;;;;;3.10;100.00;102164.94;5014480;28;20046;-79
2022/01/20 02:18:53;;;;;;;20.17;2.83;;;;;;;2.59;100.00;102141.41;5012230;28;20045;-79
2022/01/20 02:21:20;;;;;;;20.48;2.55;;;;;;;2.90;100.00;102173.41;4979482;28;20081;-80
2022/01/20 02:23:49;;;;;;;17.27;2.75;;;;;;;2.78;100.00;102157.31;4995997;28;20029;-78
2022/01/20 02:26:16;;;;;;;16.67;2.50;;;;;;;3.00;100.00;102189.66;4996362;28;20054;-80
2022/01/20 02:28:51;;;;;;;21.00;2.55;;;;;;;2.86;100.00;102122.25;4996323;28;20152;-78
2022/01/20 02:31:17;;;;;;;22.67;2.90;;;;;;;3.13;100.00;102163.97;5013948;28;20453;-79
2022/01/20 02:34:01;;;;;;;17.50;2.70;;;;;;;3.01;100.00;102172.22;5013733;28;20021;-80
2022/01/20 02:36:46;;;;;;;19.42;2.90;;;;;;;3.08;100.00;102164.13;4997166;28;20015;-80
2022/01/20 02:44:56;;;;;;;18.25;2.42;;;;;;;3.23;100.00;102174.97;5019458;23;20060;-79
2022/01/20 02:47:34;;;;;;;25.65;2.58;;;;;;;2.91;100.00;102115.13;5029816;23;20090;-79
2022/01/20 02:50:24;;;;;;;16.35;2.25;;;;;;;3.20;100.00;102170.69;5011682;28;20050;-79
2022/01/20 02:52:57;;;;;;;24.20;2.35;;;;;;;3.15;100.00;102133.44;5014017;28;20022;-79
2022/01/20 02:55:41;;;;;;;24.25;2.90;;;;;;;3.13;100.00;102138.75;5014301;28;20006;-80
2022/01/20 02:58:09;;;;;;;17.05;2.30;;;;;;;3.22;100.00;102162.81;5014320;28;20061;-80
2022/01/20 03:00:36;;;;;;;15.52;2.00;;;;;;;3.01;100.00;102151.34;5017543;23;20043;-79
2022/01/20 03:03:02;;;;;;;13.73;1.70;;;;;;;2.64;100.00;102163.84;4992190;28;20042;-79
2022/01/20 03:05:31;;;;;;;10.35;1.60;;;;;;;2.76;100.00;102164.34;4975884;28;20388;-80
2022/01/20 03:07:57;;;;;;;7.97;1.38;;;;;;;2.80;100.00;102181.63;4975405;28;20090;-80
2022/01/20 03:10:48;;;;;;;14.98;1.67;;;;;;;3.00;100.00;102217.47;4975757;28;20185;-80
2022/01/20 03:13:15;;;;;;;14.10;1.80;;;;;;;2.75;100.00;102173.06;4976915;23;20073;-82
2022/01/20 03:15:45;;;;;;;15.68;1.95;;;;;;;2.65;100.00;102155.09;4973778;28;20045;-80
2022/01/20 03:18:12;;;;;;;16.27;2.00;;;;;;;2.90;100.00;102172.56;4986098;23;20040;-80
2022/01/20 03:20:45;;;;;;;20.13;2.80;;;;;;;2.89;100.00;102194.38;5004660;28;20092;-80
2022/01/20 03:23:15;;;;;;;21.85;3.65;;;;;;;2.46;100.00;102152.22;5021113;28;20050;-79
2022/01/20 03:25:46;;;;;;;28.92;3.95;;;;;;;2.60;100.00;102154.41;4985730;28;20026;-79
2022/01/20 03:28:17;;;;;;;19.98;3.75;;;;;;;2.50;100.00;102151.25;5002778;28;20117;-80
2022/01/20 03:30:49;;;;;;;22.33;4.03;;;;;;;2.56;100.00;102173.66;5004605;28;20076;-80
2022/01/20 03:33:15;;;;;;;21.50;4.22;;;;;;;2.79;100.00;102151.19;4988595;28;20380;-80
2022/01/20 03:35:44;;;;;;;16.20;3.38;;;;;;;2.45;100.00;102142.72;5028928;23;20057;-80
2022/01/20 03:38:14;;;;;;;21.45;3.60;;;;;;;2.39;100.00;102157.69;5004985;28;20144;-80
2022/01/20 03:44:25;;;;;;;19.73;3.42;;;;;;;2.57;100.00;102151.91;5057825;23;20451;-79
2022/01/20 03:46:57;;;;;;;17.10;3.72;;;;;;;3.02;100.00;102189.56;5031990;28;20037;-79
2022/01/20 03:49:52;;;;;;;18.35;3.30;;;;;;;3.09;100.00;102225.88;5049650;28;20519;-80
2022/01/20 03:52:19;;;;;;;24.02;3.80;;;;;;;2.89;100.00;102220.44;5014484;28;20026;-78
2022/01/20 03:54:45;;;;;;;14.55;2.97;;;;;;;2.57;100.00;102264.03;5009442;28;20056;-79
2022/01/20 03:57:11;;;;;;;15.25;2.58;;;;;;;2.30;100.00;102234.41;5013798;28;20041;-82
2022/01/20 03:59:37;;;;;;;22.58;2.80;;;;;;;2.02;100.00;102240.44;5016922;28;20042;-79
2022/01/20 04:02:07;;;;;;;16.63;2.25;;;;;;;1.68;100.00;102214.44;5034809;28;20018;-80
2022/01/20 04:04:54;;;;;;;15.40;2.05;;;;;;;1.86;100.00;102228.69;5025658;28;20056;-80
2022/01/20 04:07:24;;;;;;;18.08;2.05;;;;;;;2.07;100.00;102255.94;5031456;28;20112;-79
2022/01/20 04:09:49;;;;;;;20.02;2.80;;;;;;;1.99;100.00;102252.69;5011175;28;20041;-80
2022/01/20 04:12:19;;;;;;;18.05;2.40;;;;;;;1.69;100.00;102213.56;5044275;23;20062;-79
2022/01/20 04:14:49;;;;;;;21.45;2.50;;;;;;;1.91;100.00;102252.91;5024104;28;20208;-80
2022/01/20 04:19:44;;;;;;;19.07;2.70;;;;;;;1.77;100.00;102197.69;5113032;23;20057;-79
2022/01/20 04:22:10;;;;;;;16.52;2.40;;;;;;;1.95;100.00;102204.16;4996508;28;20763;-79
2022/01/20 04:24:37;;;;;;;23.60;3.60;;;;;;;2.24;100.00;102253.69;5023354;28;20139;-79
2022/01/20 04:27:11;;;;;;;19.30;2.90;;;;;;;2.18;100.00;102273.84;5028985;28;20052;-79
2022/01/20 04:29:44;;;;;;;21.33;2.80;;;;;;;2.21;100.00;102286.81;5025750;28;20021;-79
2022/01/20 04:32:13;;;;;;;19.23;2.78;;;;;;;2.08;100.00;102247.22;5022854;28;20070;-79
2022/01/20 04:34:44;;;;;;;19.27;2.63;;;;;;;2.28;100.00;102273.56;5020379;28;20328;-79
2022/01/20 04:37:13;;;;;;;24.90;3.85;;;;;;;1.96;100.00;102263.19;5040163;28;20112;-79
2022/01/20 04:39:45;;;;;;;27.48;3.55;;;;;;;2.03;100.00;102234.31;5025338;28;20022;-80
2022/01/20 04:42:11;;;;;;;21.52;3.88;;;;;;;2.21;100.00;102308.50;5027739;28;20152;-80
2022/01/20 04:44:45;;;;;;;24.42;3.83;;;;;;;1.99;100.00;102269.16;5030110;28;20064;-79
2022/01/20 04:57:59;;;;;;;16.45;2.53;;;;;;;2.16;100.00;102284.34;5031985;28;20211;-79
2022/01/20 05:00:26;;;;;;;18.10;2.67;;;;;;;2.01;100.00;102283.00;5010555;28;20387;-80
2022/01/20 05:03:17;;;;;;;15.63;2.20;;;;;;;2.17;100.00;102267.78;5029068;28;20032;-80
2022/01/20 05:05:45;;;;;;;21.38;3.08;;;;;;;2.18;100.00;102266.91;5016380;28;20033;-81
2022/01/20 05:08:11;;;;;;;19.58;2.88;;;;;;;2.10;100.00;102276.69;5031594;28;20076;-79
2022/01/20 05:10:40;;;;;;;18.73;2.63;;;;;;;1.82;100.00;102255.75;5013019;28;20112;-80
2022/01/20 05:13:22;;;;;;;21.02;2.80;;;;;;;2.08;100.00;102288.91;5028950;28;20037;-80
2022/01/20 05:15:51;;;;;;;25.02;2.72;;;;;;;2.05;100.00;102284.63;5014356;28;20079;-81
2022/01/20 05:18:31;;;;;;;25.88;2.70;;;;;;;1.99;100.00;102270.91;5035995;28;20025;-81
2022/01/20 05:21:05;;;;;;;18.02;2.80;;;;;;;2.53;100.00;102326.75;5031292;28;20397;-80
2022/01/20 05:23:31;;;;;;;24.70;2.42;;;;;;;2.38;100.00;102330.66;5012279;28;20045;-80
2022/01/20 05:25:57;;;;;;;16.40;2.70;;;;;;;2.43;100.00;102347.88;5013939;28;20029;-81
2022/01/20 05:28:35;;;;;;;22.27;2.60;;;;;;;1.80;100.00;102283.59;5031119;28;20037;-81
2022/01/20 05:31:11;;;;;;;18.33;2.13;;;;;;;2.43;100.00;102350.50;5031750;28;20016;-81
2022/01/20 05:34:04;;;;;;;;;;;;;;;2.45;100.00;102358.25;5039286;28;20018;-80
2022/01/20 05:36:46;;;;;;;14.85;2.10;;;;;;;2.34;100.00;102358.56;5053457;28;19913;-81
2022/01/20 05:39:32;;;;;;;;;;;;;;;;;;;;;
2022/01/20 05:42:04;;;;;;;24.17;2.55;;;;;;;2.24;100.00;102342.31;4968503;28;20041;-81
2022/01/20 05:44:35;;;;;;;17.23;2.60;;;;;;;2.09;100.00;102316.69;4970371;28;20159;-80
2022/01/20 05:47:09;;;;;;;18.60;3.20;;;;;;;2.09;100.00;102320.13;4968290;28;20043;-80
2022/01/20 05:49:38;;;;;;;17.90;2.90;;;;;;;2.41;100.00;102375.75;4985072;28;20657;-79
2022/01/20 05:52:05;;;;;;;19.60;2.60;;;;;;;2.21;100.00;102334.56;4953765;28;20050;-80
2022/01/20 05:54:34;;;;;;;25.55;3.08;;;;;;;2.53;100.00;102352.84;4971807;28;20111;-80
2022/01/20 05:57:04;;;;;;;17.80;3.33;;;;;;;2.25;100.00;102361.44;4953094;28;20043;-80
2022/01/20 05:59:32;;;;;;;17.80;3.50;;;;;;;2.36;100.00;102385.41;4960686;28;20106;-80
2022/01/20 06:02:09;;;;;;;18.67;3.05;;;;;;;2.33;100.00;102358.59;4959379;28;20026;-79
2022/01/20 06:04:35;;;;;;;20.13;3.33;;;;;;;2.35;100.00;102351.59;4934682;28;20051;-75
2022/01/20 06:07:00;;;;;;;14.95;2.30;;;;;;;2.55;100.00;102369.31;4958572;28;20577;-74
2022/01/20 06:09:26;;;;;;;17.15;2.78;;;;;;;2.36;100.00;102346.31;4945471;28;20031;-75
2022/01/20 06:11:52;;;;;;;22.70;2.60;;;;;;;2.46;100.00;102379.06;4973785;28;20031;-75
2022/01/20 06:14:23;;;;;;;17.10;2.42;;;;;;;2.39;100.00;102364.50;4966787;28;20106;-78
2022/01/20 06:16:50;;;;;;;87.85;28.42;;;;;;;2.42;100.00;102353.97;4957608;28;20106;-78
2022/01/20 06:19:16;;;;;;;20.80;4.07;;;;;;;2.35;100.00;102333.34;4965959;29;20091;-83
2022/01/20 06:21:50;;;;;;;14.82;2.80;;;;;;;2.56;100.00;102404.91;4936673;29;20027;-80
2022/01/20 06:24:16;;;;;;;12.40;2.13;;;;;;;2.47;100.00;102404.25;4954548;29;20042;-80
2022/01/20 06:26:43;;;;;;;20.55;2.03;;;;;;;2.14;100.00;102416.44;5004861;28;20038;-79
2022/01/20 06:29:15;;;;;;;17.27;1.90;;;;;;;2.14;100.00;102428.63;4989370;28;20119;-79
2022/01/20 06:31:44;;;;;;;19.10;2.60;;;;;;;1.71;100.00;102352.41;4990537;28;20034;-82
2022/01/20 06:34:10;;;;;;;28.70;3.10;;;;;;;1.98;100.00;102369.06;4988649;28;20476;-80
2022/01/20 06:36:36;;;;;;;16.38;2.80;;;;;;;2.13;100.00;102406.88;5004488;28;20038;-81
2022/01/20 06:39:04;;;;;;;24.60;3.10;;;;;;;1.61;100.00;102325.75;4989610;28;20079;-81
2022/01/20 06:41:39;;;;;;;21.23;3.60;;;;;;;1.95;100.00;102373.50;5006151;28;20191;-79
2022/01/20 06:44:09;;;;;;;27.98;4.55;;;;;;;2.15;100.00;102405.09;5006995;28;20042;-81
2022/01/20 06:46:40;;;;;;;72.63;22.30;;;;;;;2.32;100.00;102420.31;4999288;28;20034;-78
2022/01/20 06:49:06;;;;;;;27.92;6.35;;;;;;;2.31;100.00;102436.84;4997719;28;20034;-76
2022/01/20 06:51:35;;;;;;;24.17;2.50;;;;;;;1.80;100.00;102374.75;5013091;28;20121;-78
2022/01/20 06:54:01;;;;;;;21.63;2.75;;;;;;;1.84;100.00;102374.63;4994818;28;20129;-74
2022/01/20 06:56:29;;;;;;;18.23;2.17;;;;;;;1.90;100.00;102381.44;5002866;28;20029;-79
2022/01/20 06:58:55;;;;;;;15.02;2.38;;;;;;;2.19;100.00;102464.09;4999320;28;20117;-78
2022/01/20 07:01:24;;;;;;;25.67;3.22;;;;;;;1.86;100.00;102463.16;4985103;28;20026;-78
2022/01/20 07:03:52;;;;;;;15.25;2.50;;;;;;;1.46;100.00;102418.06;4993801;28;20064;-75
2022/01/20 07:06:18;;;;;;;14.48;2.05;;;;;;;1.82;100.00;102456.31;5005109;28;20030;-78
2022/01/20 07:08:44;;;;;;;17.48;2.10;;;;;;;1.81;100.00;102426.78;5003506;28;20025;-79
2022/01/20 07:11:34;;;;;;;12.07;2.33;;;;;;;1.91;100.00;102456.09;5006294;28;20109;-81
2022/01/20 07:14:03;;;;;;;17.08;2.15;;;;;;;1.58;100.00;102401.28;5005345;28;20060;-80
2022/01/20 07:16:29;;;;;;;16.48;2.90;;;;;;;1.92;100.00;102431.75;4984124;28;20341;-78
2022/01/20 07:18:58;;;;;;;21.58;3.17;;;;;;;1.82;100.00;102431.13;5028971;28;20187;-77
2022/01/20 07:21:24;;;;;;;21.60;2.92;;;;;;;2.08;100.00;102477.38;5034070;28;20025;-79
2022/01/20 07:23:51;;;;;;;20.27;2.65;;;;;;;2.10;100.00;102425.22;5033770;28;20110;-78
2022/01/20 07:26:20;;;;;;;15.77;2.30;;;;;;;2.09;100.00;102428.75;5021503;28;20479;-77
2022/01/20 07:28:48;;;;;;;18.42;2.60;;;;;;;2.22;100.00;102460.53;5017121;28;20029;-77
2022/01/20 07:31:22;;;;;;;22.83;3.03;;;;;;;1.87;100.00;102390.19;5010562;28;20026;-78
2022/01/20 07:33:49;;;;;;;26.23;3.72;;;;;;;2.03;100.00;102397.63;5007736;28;20029;-76
2022/01/20 07:36:16;;;;;;;14.95;2.50;;;;;;;2.19;100.00;102409.34;5008542;28;20039;-79
2022/01/20 07:38:55;;;;;;;15.18;2.03;;;;;;;2.51;100.00;102465.84;4994384;28;20062;-78
2022/01/20 07:41:22;;;;;;;13.52;3.05;;;;;;;2.14;100.00;102439.03;4998341;28;20033;-78
2022/01/20 07:43:48;;;;;;;14.32;2.97;;;;;;;2.48;100.00;102457.28;5422949;23;20054;-73
2022/01/20 07:46:14;;;;;;;24.25;5.75;;;;;;;2.60;100.00;102475.19;4957830;28;20113;-75
2022/01/20 07:48:39;;;;;;;18.27;2.63;;;;;;;2.24;100.00;102437.91;4952206;28;20039;-74
2022/01/20 07:51:08;;;;;;;16.58;2.70;;;;;;;2.44;100.00;102477.34;4954316;28;20038;-75
2022/01/20 07:53:36;;;;;;;20.58;2.95;;;;;;;2.24;100.00;102446.56;4972167;28;20022;-73
2022/01/20 07:56:04;;;;;;;123.22;47.17;;;;;;;2.14;100.00;102488.56;4965109;28;20094;-73
2022/01/20 07:58:29;;;;;;;22.42;3.70;;;;;;;2.35;100.00;102506.25;4942690;28;20024;-74
2022/01/20 08:00:55;;;;;;;20.95;3.22;;;;;;;2.45;100.00;102499.06;4966022;28;20027;-75
2022/01/20 08:03:21;;;;;;;16.92;2.85;;;;;;;2.47;100.00;102492.03;4952523;28;20019;-75
2022/01/20 08:05:50;;;;;;;19.27;2.47;;;;;;;0.92;100.00;102288.31;4936643;28;20035;-75
2022/01/20 08:08:15;;;;;;;17.67;2.17;;;;;;;1.62;100.00;102379.50;4971400;28;20027;-74
2022/01/20 08:10:41;;;;;;;19.38;2.72;;;;;;;1.18;100.00;102329.38;4969907;28;20037;-76
2022/01/20 08:13:07;;;;;;;21.33;2.83;;;;;;;2.49;100.00;102503.28;4977327;28;20101;-75
2022/01/20 08:15:36;;;;;;;19.60;2.40;;;;;;;2.61;100.00;102521.25;4942812;28;20110;-74
2022/01/20 08:18:02;;;;;;;12.57;2.92;;;;;;;1.57;100.00;102385.75;4975883;28;20458;-74
2022/01/20 08:20:28;;;;;;;12.30;2.35;;;;;;;1.50;100.00;102356.38;4970843;28;20477;-75
2022/01/20 08:22:56;;;;;;;17.58;2.90;;;;;;;1.44;100.00;102374.75;4962342;28;20030;-75
2022/01/20 08:25:23;;;;;;;15.73;3.10;;;;;;;1.86;100.00;102434.50;4978798;28;20047;-76
2022/01/20 08:27:50;;;;;;;23.05;3.42;;;;;;;2.13;100.00;102464.22;4951031;28;20034;-75
2022/01/20 08:30:19;;;;;;;17.08;2.90;;;;;;;2.47;100.00;102539.84;4983224;28;20018;-75
2022/01/20 08:32:46;;;;;;;15.77;2.92;;;;;;;2.54;100.00;102550.13;4952870;28;20024;-74
2022/01/20 08:35:13;;;;;;;16.85;2.35;;;;;;;2.54;100.00;102531.88;4963007;28;20023;-75
2022/01/20 08:37:43;;;;;;;16.40;2.25;;;;;;;2.47;100.00;102534.63;4957938;28;20038;-75
2022/01/20 08:40:13;;;;;;;13.30;2.28;;;;;;;1.96;100.00;102497.69;4951386;28;20022;-75
2022/01/20 08:42:41;;;;;;;18.25;2.72;;;;;;;1.72;100.00;102406.19;4959121;28;20037;-74
2022/01/20 08:45:08;;;;;;;41.63;12.02;;;;;;;1.79;100.00;102417.31;4962316;28;20399;-73
2022/01/20 08:47:34;;;;;;;15.20;2.20;;;;;;;2.25;100.00;102512.63;4963457;28;20035;-73
2022/01/20 08:49:59;;;;;;;23.70;3.53;;;;;;;2.43;100.00;102508.66;4956279;29;20020;-76
2022/01/20 08:52:30;;;;;;;16.73;2.13;;;;;;;1.64;100.00;102371.66;4951363;29;20035;-74
2022/01/20 08:54:59;;;;;;;16.08;3.42;;;;;;;2.64;100.00;102549.84;4958370;29;20028;-75
2022/01/20 08:57:25;;;;;;;12.48;2.22;;;;;;;1.32;100.00;102322.97;4962832;28;20039;-73
2022/01/20 08:59:52;;;;;;;14.73;2.50;;;;;;;2.24;100.00;102484.81;4960308;29;20027;-73
2022/01/20 09:02:17;;;;;;;10.15;1.80;;;;;;;2.54;100.00;102570.97;4951022;29;20323;-74
2022/01/20 09:04:43;;;;;;;9.85;1.60;;;;;;;2.54;100.00;102558.78;4943718;29;20023;-74
2022/01/20 09:07:13;;;;;;;13.07;2.20;;;;;;;2.81;100.00;102565.06;4959784;28;20355;-74
2022/01/20 09:09:45;;;;;;;11.52;1.70;;;;;;;2.83;100.00;102560.66;4957357;29;20462;-74
2022/01/20 09:17:31;;;;;;;15.93;1.80;;;;;;;2.89;100.00;102552.69;4950713;29;20063;-74
2022/01/20 09:19:58;;;;;;;13.40;2.08;;;;;;;1.67;100.00;102385.44;4949774;29;20449;-74
2022/01/20 09:22:26;;;;;;;15.85;2.00;;;;;;;3.04;100.00;102582.72;4949703;29;20079;-74
2022/01/20 09:24:52;;;;;;;17.73;2.80;;;;;;;2.48;100.00;102494.63;4976562;28;20494;-74
2022/01/20 09:27:24;;;;;;;12.82;2.08;;;;;;;2.83;100.00;102567.63;4940396;29;20034;-74
2022/01/20 09:29:50;;;;;;;12.38;1.90;;;;;;;2.02;100.00;102467.13;4930320;29;20477;-75
2022/01/20 09:32:18;;;;;;;13.20;2.00;;;;;;;2.75;100.00;102546.97;4963532;28;20052;-74
2022/01/20 09:35:04;;;;;;;17.10;1.92;;;;;;;1.63;100.00;102357.78;4941395;29;20035;-76
2022/01/20 09:37:30;;;;;;;17.25;3.28;;;;;;;2.95;100.00;102592.53;4950314;28;20031;-74
2022/01/20 09:39:56;;;;;;;9.93;2.00;;;;;;;1.82;100.00;102376.41;4951339;29;20117;-74
2022/01/20 09:42:24;;;;;;;22.20;4.93;;;;;;;3.23;100.00;102610.97;4948173;29;20034;-74
2022/01/20 09:44:49;;;;;;;21.83;3.85;;;;;;;3.09;100.00;102588.69;4971197;28;20039;-75
2022/01/20 09:47:45;;;;;;;14.15;2.45;;;;;;;2.75;100.00;102604.38;5454792;23;20100;-78
2022/01/20 09:50:37;;;;;;;15.32;2.15;;;;;;;3.06;100.00;102611.38;5033610;28;20121;-79
2022/01/20 09:53:11;;;;;;;15.48;2.10;;;;;;;2.89;100.00;102591.81;4993222;28;20030;-77
2022/01/20 09:55:38;;;;;;;14.40;2.28;;;;;;;2.85;100.00;102618.03;4988059;28;20037;-75
2022/01/20 09:58:05;;;;;;;17.20;2.33;;;;;;;2.65;100.00;102608.94;4990894;28;20039;-77
2022/01/20 10:00:40;;;;;;;10.77;1.98;;;;;;;3.03;100.00;102632.38;4977391;28;20023;-78
2022/01/20 10:03:17;;;;;;;17.40;2.30;;;;;;;2.65;100.00;102626.34;4980363;28;20065;-77
2022/01/20 10:05:52;;;;;;;13.30;1.98;;;;;;;2.71;100.00;102598.34;4973557;28;20052;-77
2022/01/20 10:08:30;;;;;;;23.27;2.58;;;;;;;3.18;100.00;102637.19;5026211;28;20064;-78
2022/01/20 10:11:01;;;;;;;10.15;1.77;;;;;;;3.10;100.00;102647.81;5011793;28;20033;-79
2022/01/20 10:13:47;;;;;;;13.95;1.80;;;;;;;2.81;100.00;102665.97;5010774;28;20046;-79
2022/01/20 10:16:17;;;;;;;65.05;23.13;;;;;;;2.42;100.00;102593.84;4997910;28;20084;-79
2022/01/20 10:18:51;;;;;;;12.82;2.70;;;;;;;3.10;100.00;102663.47;5011357;28;20036;-78
2022/01/20 10:21:31;;;;;;;19.58;5.13;;;;;;;3.02;100.00;102631.50;5009069;28;20033;-77
2022/01/20 10:24:12;;;;;;;15.63;2.78;;;;;;;2.66;100.00;102631.53;5006207;28;20176;-78
2022/01/20 10:26:41;;;;;;;23.60;4.60;;;;;;;3.17;100.00;102661.56;5024116;28;20345;-77
2022/01/20 10:29:16;;;;;;;16.65;2.97;;;;;;;2.77;100.00;102649.53;5011206;28;20041;-78
2022/01/20 10:31:52;;;;;;;11.45;1.80;;;;;;;2.90;100.00;102603.94;4993797;28;20032;-77
2022/01/20 10:34:30;;;;;;;14.38;2.78;;;;;;;3.24;100.00;102655.28;4992891;28;20313;-78
2022/01/20 10:37:02;;;;;;;14.55;3.55;;;;;;;3.14;100.00;102643.38;4995795;28;20030;-78
2022/01/20 10:39:42;;;;;;;14.23;3.38;;;;;;;2.71;100.00;102629.66;5012381;28;20026;-76
2022/01/20 10:42:11;;;;;;;12.13;2.22;;;;;;;2.51;100.00;102624.94;5026071;28;20018;-77
2022/01/20 10:44:56;;;;;;;11.97;1.87;;;;;;;2.71;100.00;102605.34;5479777;23;20092;-77
2022/01/20 10:47:29;;;;;;;11.77;2.80;;;;;;;3.29;100.00;102626.44;4973644;28;20281;-76
2022/01/20 10:50:07;;;;;;;13.38;2.35;;;;;;;3.27;100.00;102656.94;4972015;28;20026;-77
2022/01/20 10:52:36;;;;;;;12.82;2.50;;;;;;;3.40;100.00;102658.34;4973403;28;20022;-77
2022/01/20 10:55:06;;;;;;;20.23;5.35;;;;;;;3.56;100.00;102677.06;5005841;28;20141;-77
2022/01/20 10:58:11;;;;;;;14.20;2.13;;;;;;;3.28;100.00;102675.19;4993347;28;20134;-77
2022/01/20 11:00:47;;;;;;;18.30;2.33;;;;;;;3.40;100.00;102654.88;4990341;28;20094;-77
2022/01/20 11:03:15;;;;;;;17.15;2.30;;;;;;;3.64;100.00;102687.31;4978788;28;20034;-78
2022/01/20 11:05:44;;;;;;;20.60;2.75;;;;;;;3.54;100.00;102700.63;4994155;28;20021;-77
2022/01/20 11:08:13;;;;;;;15.18;2.10;;;;;;;3.20;100.00;102666.69;4977241;28;20026;-77
2022/01/20 11:10:43;;;;;;;13.18;1.73;;;;;;;3.60;100.00;102659.56;4994577;28;20030;-77
2022/01/20 11:16:38;;;;;;;16.08;2.00;;;;;;;3.62;100.00;102678.66;4992304;28;20062;-77
2022/01/20 11:19:14;;;;;;;19.63;2.20;;;;;;;3.82;100.00;102668.50;4970469;28;20090;-76
2022/01/20 11:21:42;;;;;;;65.35;26.58;;;;;;;4.15;100.00;102666.63;4964060;28;20038;-79
2022/01/20 11:24:18;;;;;;;20.83;2.38;;;;;;;3.98;100.00;102674.16;4964588;28;20014;-78
2022/01/20 11:26:52;;;;;;;14.80;1.88;;;;;;;4.32;100.00;102628.69;4995047;28;20038;-73
2022/01/20 11:29:18;;;;;;;;;;;;;;;4.44;100.00;102653.59;4984176;28;20053;-74
2022/01/20 11:31:44;;;;;;;11.43;1.77;;;;;;;4.44;100.00;102645.75;4996239;28;19914;-73
2022/01/20 11:34:18;;;;;;;15.02;1.80;;;;;;;4.66;100.00;102627.59;4976313;28;20023;-76
2022/01/20 11:36:48;;;;;;;16.95;1.90;;;;;;;5.45;100.00;102624.00;4973123;28;20054;-78
2022/01/20 11:39:25;;;;;;;14.27;2.17;;;;;;;6.01;100.00;102633.28;5005243;28;20042;-75
2022/01/20 11:41:52;;;;;;;9.13;1.58;;;;;;;5.88;100.00;102619.75;4977807;28;20030;-76
2022/01/20 11:44:20;;;;;;;15.02;2.03;;;;;;;5.07;100.00;102630.59;4954392;28;20014;-75
2022/01/20 11:46:49;;;;;;;11.75;2.45;;;;;;;5.32;100.00;102651.53;4969120;28;20062;-75
2022/01/20 11:49:17;;;;;;;30.48;5.47;;;;;;;4.56;100.00;102653.19;4992598;28;20034;-75
2022/01/20 11:51:45;;;;;;;19.60;6.70;;;;;;;4.20;100.00;102650.81;4972630;28;20356;-75
2022/01/20 11:54:12;;;;;;;13.55;2.00;;;;;;;3.72;100.00;102641.78;4959376;28;20328;-74
2022/01/20 11:56:40;;;;;;;14.80;2.55;;;;;;;3.48;100.00;102645.09;4964780;28;20026;-73
2022/01/20 11:59:10;;;;;;;15.45;2.97;;;;;;;3.69;100.00;102613.13;4969421;28;20053;-74
2022/01/20 12:01:53;;;;;;;16.90;2.42;;;;;;;3.96;100.00;102652.41;4955926;28;20018;-74
2022/01/20 12:04:39;;;;;;;19.15;2.72;;;;;;;3.89;100.00;102654.34;4971567;28;20126;-76
2022/01/20 12:07:06;;;;;;;20.80;2.75;;;;;;;4.05;100.00;102580.72;4958763;28;20104;-76
2022/01/20 12:09:36;;;;;;;16.30;2.83;;;;;;;4.92;100.00;102643.28;4976418;28;20486;-75
2022/01/20 12:12:18;;;;;;;18.33;3.05;;;;;;;4.86;100.00;102629.53;4996867;28;20074;-74
2022/01/20 12:14:45;;;;;;;19.08;2.40;;;;;;;5.67;100.00;102610.09;4950782;28;20027;-75
2022/01/20 12:17:17;;;;;;;21.30;2.53;;;;;;;6.25;100.00;102626.25;4946873;28;20126;-74
2022/01/20 12:19:47;;;;;;;16.70;2.20;;;;;;;6.66;100.00;102634.22;4977846;28;20035;-74
2022/01/20 12:22:13;;;;;;;15.52;2.47;;;;;;;6.86;100.00;102570.38;4958509;28;20030;-72
2022/01/20 12:24:51;;;;;;;17.13;4.28;;;;;;;6.45;100.00;102596.59;4962264;28;20023;-74
2022/01/20 12:27:22;;;;;;;16.65;2.58;;;;;;;7.41;100.00;102582.84;4979261;28;20022;-76
2022/01/20 12:29:51;;;;;;;14.30;3.35;;;;;;;7.48;100.00;102629.81;4998271;28;20065;-75
2022/01/20 12:32:19;;;;;;;18.92;2.78;;;;;;;7.32;100.00;102561.31;4994624;28;20031;-74
2022/01/20 12:34:59;;;;;;;17.50;4.07;;;;;;;6.80;100.00;102566.22;4996155;28;20130;-75
2022/01/20 12:37:35;;;;;;;17.95;3.22;;;;;;;6.38;100.00;102600.34;4977225;28;20069;-72
2022/01/20 12:40:02;;;;;;;19.17;2.33;;;;;;;5.66;100.00;102609.25;4979490;28;20089;-72
2022/01/20 12:42:34;;;;;;;13.82;2.25;;;;;;;5.88;100.00;102606.66;4998166;28;20022;-72
2022/01/20 12:45:05;;;;;;;19.77;2.42;;;;;;;5.37;100.00;102613.78;4976087;28;20531;-75
2022/01/20 12:47:31;;;;;;;16.10;3.45;;;;;;;5.55;100.00;102559.84;4991518;28;20110;-74
2022/01/20 12:49:59;;;;;;;12.80;2.15;;;;;;;8.31;100.00;102609.31;4976688;28;20117;-73
2022/01/20 12:52:24;;;;;;;14.48;2.03;;;;;;;8.52;100.00;102595.16;4985083;28;20034;-74
2022/01/20 12:54:51;;;;;;;12.07;1.90;;;;;;;9.74;100.00;102613.44;4950454;28;20085;-73
2022/01/20 12:57:18;;;;;;;9.57;2.10;;;;;;;11.16;100.00;102610.63;4959464;28;20033;-74
2022/01/20 12:59:45;;;;;;;7.80;1.40;;;;;;;13.28;80.16;102565.06;4945990;28;20046;-73
2022/01/20 13:02:28;;;;;;;9.25;1.70;;;;;;;14.79;60.46;102576.16;4974690;28;20125;-74
2022/01/20 13:05:03;;;;;;;9.25;1.60;;;;;;;13.23;70.00;102573.31;4958988;28;20065;-74